Triplett, North Carolina
Current Conditions -  °F | °C
As of 9:15 PM on Thursday 18 Dec 2014 (Local Time) from KTNB Reporting Station
Overcast Overcast  
Wind Chill: 28°   Ceiling: 4800
Heat Index: 35°   Visibility: 10mi
Dew Point: 19°   Wind: 10mph
Humidity: 52%   Direction: 280°W
Pressure: 30.06"   Gusts: NA
Location:  36.1935°N, 81.5276°W
Report Text: KTNB 190215Z AUTO 28009KT 10SM OVC048 02/M07 A3006 RMK AO2 T00181071
Loading
Personal Weather Stations






























Interactive Weather Map New forecast layout! Learn more

10-Day Weather Forecast

Advertisements
Track Severe Weather on mobile